Time;durP1;ratioP1;P1;durP2;ratioP2;P2;SDS_P1;SDS_P2;PMS_P1;PMS_P2;Temp;Humidity;BMP_temperature;BMP_pressure;BME280_temperature;BME280_humidity;BME280_pressure;Samples;Min_cycle;Max_cycle;Signal;HPM_P1;HPM_P2
2021/07/23 00:00:45;;;;;;;11.25;8.80;;;18.40;61.50;;;18.27;45.27;95227.41;4985877;28;20554;-81
2021/07/23 00:03:13;;;;;;;11.75;8.68;;;18.40;62.00;;;18.25;45.51;95224.97;5032502;28;20234;-81
2021/07/23 00:05:40;;;;;;;11.80;8.52;;;18.40;62.10;;;18.24;45.38;95226.03;5021259;28;20257;-82
2021/07/23 00:08:07;;;;;;;12.07;9.13;;;18.40;61.80;;;18.24;45.60;95224.16;5021891;28;20196;-82
2021/07/23 00:10:34;;;;;;;10.70;9.05;;;18.40;62.10;;;18.23;45.84;95219.09;5018095;28;20211;-81
2021/07/23 00:13:02;;;;;;;13.75;8.57;;;18.30;62.10;;;18.22;45.88;95214.81;5018005;28;20199;-81
2021/07/23 00:15:29;;;;;;;12.63;9.32;;;18.30;62.10;;;18.21;46.01;95211.38;5017202;28;20234;-81
2021/07/23 00:17:56;;;;;;;11.73;9.30;;;18.30;62.20;;;18.21;46.05;95219.31;5017898;28;20196;-81
2021/07/23 00:20:23;;;;;;;11.35;9.05;;;18.30;62.20;;;18.23;46.12;95222.53;5017611;28;20626;-82
2021/07/23 00:22:51;;;;;;;11.50;9.25;;;18.20;62.10;;;18.24;46.02;95213.53;5035927;28;20657;-82
2021/07/23 00:25:18;;;;;;;12.38;9.57;;;18.20;62.10;;;18.27;45.74;95214.13;5037541;28;20207;-81
2021/07/23 00:27:45;;;;;;;12.32;10.02;;;18.30;62.10;;;18.23;46.27;95203.16;5021310;28;20203;-81
2021/07/23 00:30:13;;;;;;;12.00;8.85;;;18.30;62.10;;;18.26;45.97;95200.06;5010797;28;20216;-81
2021/07/23 00:32:41;;;;;;;12.63;9.40;;;18.30;62.10;;;18.24;46.52;95204.78;5001313;28;20250;-81
2021/07/23 00:35:09;;;;;;;13.65;9.13;;;18.30;62.10;;;18.28;46.59;95210.44;5018240;28;20239;-82
2021/07/23 00:37:36;;;;;;;10.68;8.52;;;18.30;62.10;;;18.27;46.70;95208.81;5017522;28;20200;-81
2021/07/23 00:40:06;;;;;;;12.05;8.85;;;18.40;62.20;;;18.31;46.36;95204.63;5001585;28;20293;-82
2021/07/23 00:42:42;;;;;;;13.48;9.55;;;18.30;62.20;;;18.32;46.64;95206.25;5017581;28;20227;-81
2021/07/23 00:45:11;;;;;;;12.07;9.00;;;18.30;62.20;;;18.32;46.25;95207.09;5017785;28;20219;-81
2021/07/23 00:47:44;;;;;;;13.77;9.30;;;18.40;63.10;;;18.31;47.00;95200.16;5017362;28;20195;-80
2021/07/23 00:50:12;;;;;;;13.18;9.50;;;18.30;62.70;;;18.31;46.35;95202.81;5034142;28;20223;-81
2021/07/23 00:52:40;;;;;;;12.98;9.32;;;18.40;62.20;;;18.30;46.78;95209.16;5026137;28;20650;-81
2021/07/23 00:55:08;;;;;;;14.98;10.05;;;18.40;62.20;;;18.28;46.49;95203.25;5034220;28;20224;-82
2021/07/23 00:57:37;;;;;;;14.52;9.88;;;18.40;62.20;;;18.30;46.87;95205.72;5034054;28;20283;-80
2021/07/23 01:00:05;;;;;;;14.40;9.82;;;18.40;62.20;;;18.30;46.95;95203.84;5017360;28;20227;-81
2021/07/23 01:02:47;;;;;;;12.45;9.40;;;18.40;62.30;;;18.29;46.52;95198.78;5022329;28;20249;-82
2021/07/23 01:05:15;;;;;;;11.35;9.18;;;18.40;62.60;;;18.29;46.69;95193.47;5036552;28;20215;-81
2021/07/23 01:07:42;;;;;;;11.93;9.68;;;18.40;62.50;;;18.29;46.89;95199.56;5020644;28;20203;-82
2021/07/23 01:10:11;;;;;;;11.48;8.63;;;18.30;62.50;;;18.27;46.89;95198.19;5036671;28;20641;-81
2021/07/23 01:13:00;;;;;;;12.00;9.25;;;18.40;62.70;;;18.31;47.22;95199.31;5033584;28;20277;-81
2021/07/23 01:15:28;;;;;;;10.93;8.90;;;18.40;63.10;;;18.32;47.11;95204.44;5016521;28;20228;-82
2021/07/23 01:17:56;;;;;;;12.70;9.63;;;18.40;63.00;;;18.35;46.74;95195.19;5016679;28;20682;-81
2021/07/23 01:20:27;;;;;;;13.80;9.90;;;18.40;63.00;;;18.32;47.18;95188.50;5016289;28;20665;-81
2021/07/23 01:22:58;;;;;;;12.90;9.55;;;18.40;63.30;;;18.38;47.54;95190.22;5000702;28;20227;-81
2021/07/23 01:25:27;;;;;;;13.50;8.73;;;18.40;63.10;;;18.39;47.32;95196.31;5033960;28;20251;-80
2021/07/23 01:27:56;;;;;;;12.82;8.75;;;18.40;63.50;;;18.40;47.28;95190.78;5017142;28;20199;-82
2021/07/23 01:30:44;;;;;;;14.35;8.63;;;18.40;63.50;;;18.44;47.58;95195.63;5018806;28;20303;-81
2021/07/23 01:33:25;;;;;;;12.50;9.13;;;18.40;63.40;;;18.45;47.25;95187.41;5024352;28;20194;-82
2021/07/23 01:35:53;;;;;;;12.63;9.48;;;18.40;63.50;;;18.47;47.25;95185.34;5035947;28;20227;-82
2021/07/23 01:38:24;;;;;;;12.98;9.73;;;18.50;63.60;;;18.47;47.52;95185.34;5034418;28;20188;-81
2021/07/23 01:40:54;;;;;;;12.00;8.88;;;18.50;63.60;;;18.46;47.78;95189.03;5036000;28;20223;-82
2021/07/23 01:43:23;;;;;;;13.45;9.23;;;18.50;63.60;;;18.46;47.54;95186.38;5032790;28;20479;-81
2021/07/23 01:45:53;;;;;;;16.05;9.50;;;18.40;63.80;;;18.42;47.69;95185.25;5026342;28;20222;-82
2021/07/23 01:48:38;;;;;;;12.27;8.95;;;18.40;63.70;;;18.36;47.67;95179.00;5053673;28;20187;-81
2021/07/23 01:51:12;;;;;;;14.07;9.30;;;18.40;63.60;;;18.31;47.62;95178.09;5019936;28;20645;-81
2021/07/23 01:53:45;;;;;;;12.48;8.85;;;18.40;63.50;;;18.26;47.94;95180.63;5020099;28;20341;-81
2021/07/23 01:56:13;;;;;;;11.80;8.93;;;18.40;63.50;;;18.23;47.75;95187.22;5031622;28;20223;-81
2021/07/23 01:58:44;;;;;;;11.00;8.80;;;18.50;63.60;;;18.20;48.04;95185.84;5016677;28;20254;-80
2021/07/23 02:01:12;;;;;;;12.48;9.40;;;18.30;63.50;;;18.15;47.83;95185.75;5032286;28;20223;-81
2021/07/23 02:03:51;;;;;;;12.68;9.13;;;18.30;63.50;;;18.16;47.82;95189.19;5003609;28;20206;-81
2021/07/23 02:06:19;;;;;;;12.40;9.25;;;18.30;63.60;;;18.13;47.89;95185.16;5019019;28;20219;-81
2021/07/23 02:08:48;;;;;;;16.17;9.90;;;18.30;63.60;;;18.10;47.76;95182.97;5035500;28;20192;-82
2021/07/23 02:11:16;;;;;;;12.90;8.88;;;18.30;63.80;;;18.07;48.10;95178.94;5019409;28;20639;-81
2021/07/23 02:13:44;;;;;;;18.10;9.48;;;18.30;64.00;;;18.09;48.56;95184.03;5035844;28;20199;-82
2021/07/23 02:16:11;;;;;;;12.88;9.35;;;18.20;63.90;;;18.03;48.71;95177.78;5000072;28;20232;-82
2021/07/23 02:18:39;;;;;;;15.55;9.85;;;18.20;64.10;;;18.03;48.38;95180.44;5015394;28;20199;-80
2021/07/23 02:21:14;;;;;;;12.35;9.30;;;18.20;64.20;;;18.04;48.70;95182.06;5015433;28;20227;-82
2021/07/23 02:23:41;;;;;;;13.65;9.45;;;18.20;64.20;;;18.04;48.36;95182.06;5007550;28;20294;-82
2021/07/23 02:26:21;;;;;;;13.77;9.02;;;18.10;64.20;;;18.02;49.01;95173.50;5034961;28;20222;-82
2021/07/23 02:28:50;;;;;;;11.93;9.35;;;18.10;64.50;;;18.01;48.76;95176.41;5035658;28;20195;-82
2021/07/23 02:31:17;;;;;;;13.63;9.88;;;18.10;64.00;;;18.00;48.40;95180.09;5017956;28;20302;-80
2021/07/23 02:33:57;;;;;;;12.43;9.48;;;18.10;64.20;;;17.99;48.79;95181.13;5016948;28;20290;-82
2021/07/23 02:36:32;;;;;;;16.70;9.63;;;18.00;64.10;;;17.97;48.83;95181.38;5015391;28;20323;-82
2021/07/23 02:39:03;;;;;;;15.30;9.55;;;18.10;64.30;;;17.93;48.71;95174.84;4999379;28;20290;-80
2021/07/23 02:41:36;;;;;;;12.93;9.60;;;18.10;64.30;;;17.88;49.11;95172.94;5028128;28;20206;-80
2021/07/23 02:44:04;;;;;;;12.25;9.50;;;18.10;64.20;;;17.85;48.30;95172.56;5034584;28;20199;-80
2021/07/23 02:46:33;;;;;;;13.13;9.75;;;18.00;64.00;;;17.78;48.95;95180.63;5018688;28;20565;-80
2021/07/23 02:49:02;;;;;;;13.50;9.52;;;18.00;64.00;;;17.73;48.57;95169.91;5034800;28;20207;-80
2021/07/23 02:51:31;;;;;;;13.82;9.43;;;18.00;64.20;;;17.66;48.71;95171.88;5031289;28;20199;-80
2021/07/23 02:54:02;;;;;;;13.77;9.95;;;17.90;64.20;;;17.60;49.09;95169.09;5032226;28;20214;-81
2021/07/23 02:56:30;;;;;;;13.77;9.23;;;17.80;64.20;;;17.53;49.20;95163.09;5015360;28;20278;-80
2021/07/23 02:58:58;;;;;;;16.75;9.75;;;17.80;64.20;;;17.49;49.25;95169.09;5018727;28;20245;-80
2021/07/23 03:01:28;;;;;;;12.70;9.68;;;17.70;64.20;;;17.38;48.88;95163.56;5004706;28;20224;-80
2021/07/23 03:03:58;;;;;;;15.30;10.10;;;17.70;64.20;;;17.31;48.84;95160.19;5018667;28;20207;-81
2021/07/23 03:06:32;;;;;;;13.90;9.80;;;17.60;64.10;;;17.24;49.14;95167.44;5004464;28;20302;-80
2021/07/23 03:09:00;;;;;;;12.95;9.45;;;17.60;64.20;;;17.17;49.16;95164.88;5016722;28;20195;-81
2021/07/23 03:11:29;;;;;;;15.75;10.30;;;17.50;64.10;;;17.12;49.20;95167.41;5034028;28;20210;-80
2021/07/23 03:14:04;;;;;;;18.77;9.98;;;17.50;64.30;;;17.03;49.65;95158.97;5031985;28;20210;-80
2021/07/23 03:16:41;;;;;;;16.38;9.90;;;17.40;64.30;;;16.96;49.40;95164.34;5013500;28;20563;-80
2021/07/23 03:19:08;;;;;;;16.92;10.18;;;17.40;64.50;;;16.85;49.78;95156.34;5030070;28;20196;-80
2021/07/23 03:21:37;;;;;;;13.07;10.10;;;17.20;64.40;;;16.82;49.64;95162.91;5017095;28;20192;-80
2021/07/23 03:24:08;;;;;;;13.45;10.40;;;17.30;64.60;;;16.77;49.66;95165.41;5033465;28;20203;-80
2021/07/23 03:26:36;;;;;;;14.68;10.35;;;17.10;64.40;;;16.72;49.65;95159.97;5003653;28;20666;-81
2021/07/23 03:29:07;;;;;;;12.23;10.32;;;17.10;64.60;;;16.70;49.88;95154.09;4998632;28;20242;-81
2021/07/23 03:31:36;;;;;;;11.85;9.70;;;17.00;64.60;;;16.64;49.63;95150.50;5014266;28;20717;-80
2021/07/23 03:34:17;;;;;;;15.55;9.65;;;17.00;64.70;;;16.62;49.54;95147.28;5017246;28;20202;-80
2021/07/23 03:36:50;;;;;;;12.05;9.73;;;16.90;64.80;;;16.59;50.12;95153.81;5029052;28;20318;-80
2021/07/23 03:39:23;;;;;;;13.68;10.90;;;16.90;65.00;;;16.55;50.76;95143.91;5010269;28;20808;-80
2021/07/23 03:41:51;;;;;;;15.98;10.30;;;16.90;65.20;;;16.49;50.72;95146.41;5006031;28;20199;-80
2021/07/23 03:44:20;;;;;;;15.43;9.98;;;16.80;65.30;;;16.48;50.78;95149.28;5022413;28;20199;-79
2021/07/23 03:46:49;;;;;;;13.40;8.98;;;16.80;65.50;;;16.44;50.69;95135.69;5010981;28;20672;-80
2021/07/23 03:49:17;;;;;;;12.77;9.60;;;16.70;65.30;;;16.44;50.82;95140.16;5032281;28;20253;-81
2021/07/23 03:51:46;;;;;;;15.00;9.95;;;16.70;65.60;;;16.44;51.10;95142.81;5022910;28;20207;-80
2021/07/23 03:54:17;;;;;;;14.70;10.15;;;16.70;65.60;;;16.40;50.96;95139.00;5017331;28;20210;-79
2021/07/23 03:56:45;;;;;;;12.15;10.02;;;16.70;65.70;;;16.39;50.93;95137.38;5029327;28;20224;-82
2021/07/23 03:59:16;;;;;;;13.10;9.38;;;16.60;65.70;;;16.41;51.05;95138.78;4997119;28;20223;-80
2021/07/23 04:01:51;;;;;;;12.43;9.45;;;16.60;65.90;;;16.42;51.32;95136.94;4997459;28;20390;-81
2021/07/23 04:04:20;;;;;;;13.60;9.25;;;16.60;66.00;;;16.45;51.40;95134.66;5036445;28;20224;-82
2021/07/23 04:07:03;;;;;;;10.98;8.52;;;16.60;66.00;;;16.51;51.11;95138.25;5016192;28;20227;-82
2021/07/23 04:09:32;;;;;;;11.50;8.40;;;16.60;66.60;;;16.55;50.96;95136.78;5016326;28;20212;-81
2021/07/23 04:12:00;;;;;;;11.90;8.43;;;16.60;66.10;;;16.61;51.03;95140.34;5010477;28;20193;-82
2021/07/23 04:14:33;;;;;;;13.00;8.57;;;16.70;66.40;;;16.66;51.23;95140.47;5002475;28;20243;-79
2021/07/23 04:17:01;;;;;;;15.13;9.10;;;16.70;66.50;;;16.69;51.23;95142.69;5031334;28;20580;-80
2021/07/23 04:19:29;;;;;;;11.73;8.45;;;16.70;66.50;;;16.74;51.41;95145.47;5037661;28;20688;-81
2021/07/23 04:22:05;;;;;;;11.52;8.13;;;16.70;66.80;;;16.77;51.18;95142.38;5022121;28;20686;-79
2021/07/23 04:24:52;;;;;;;14.13;8.02;;;16.80;66.70;;;16.80;51.04;95147.22;5022453;28;20226;-80
2021/07/23 04:27:20;;;;;;;11.52;8.63;;;16.80;66.80;;;16.80;51.57;95133.97;5001539;28;20290;-80
2021/07/23 04:30:08;;;;;;;11.98;8.93;;;16.80;66.90;;;16.87;51.44;95141.03;5017515;28;20320;-80
2021/07/23 04:32:58;;;;;;;10.45;7.93;;;16.90;67.10;;;16.89;51.51;95133.66;5025357;28;20203;-79
2021/07/23 04:35:26;;;;;;;13.70;8.50;;;16.80;66.90;;;16.97;51.75;95141.31;5036617;28;20483;-80
2021/07/23 04:37:53;;;;;;;10.93;7.97;;;16.90;67.20;;;16.96;51.88;95127.25;5019074;28;20707;-81
2021/07/23 04:40:36;;;;;;;12.65;8.70;;;17.00;67.40;;;17.09;51.64;95138.72;5038906;28;20223;-81
2021/07/23 04:43:05;;;;;;;11.85;9.13;;;17.00;68.30;;;17.15;51.67;95143.09;5021294;28;20676;-80
2021/07/23 04:45:32;;;;;;;14.75;9.10;;;17.00;67.40;;;17.22;51.91;95135.88;5035238;28;20246;-80
2021/07/23 04:48:04;;;;;;;11.35;8.13;;;17.10;67.50;;;17.31;52.09;95140.81;5019281;28;20707;-81
2021/07/23 04:50:52;;;;;;;11.93;8.65;;;17.10;67.80;;;17.40;52.07;95142.09;5037003;28;20242;-80
2021/07/23 04:53:37;;;;;;;11.65;9.07;;;17.20;68.00;;;17.48;51.99;95138.28;5038307;28;20222;-81
2021/07/23 04:56:33;;;;;;;13.57;9.27;;;17.30;67.80;;;17.56;51.69;95141.41;5025755;28;20223;-81
2021/07/23 04:59:01;;;;;;;13.32;9.38;;;17.40;67.80;;;17.65;51.76;95144.56;5018658;28;20202;-81
2021/07/23 05:01:28;;;;;;;15.82;10.40;;;17.40;67.70;;;17.73;52.16;95136.22;5037057;28;20191;-81
2021/07/23 05:03:55;;;;;;;12.77;9.70;;;17.50;68.10;;;17.85;52.34;95143.38;5025965;28;20200;-81
2021/07/23 05:06:23;;;;;;;16.65;9.48;;;17.70;68.40;;;17.92;52.11;95139.56;5016759;28;20251;-81
2021/07/23 05:08:51;;;;;;;12.52;9.85;;;17.70;68.50;;;18.00;52.34;95141.09;5035586;28;20227;-81
2021/07/23 05:11:18;;;;;;;11.95;9.40;;;17.70;68.40;;;18.10;52.16;95142.34;5004354;28;20260;-80
2021/07/23 05:13:52;;;;;;;17.83;10.60;;;17.80;69.10;;;18.17;51.92;95135.84;5021040;28;20254;-81
2021/07/23 05:16:20;;;;;;;13.27;9.00;;;17.90;68.00;;;18.24;51.82;95139.19;5003970;28;20269;-80
2021/07/23 05:18:47;;;;;;;14.60;10.00;;;18.00;67.80;;;18.35;51.53;95139.41;5021432;28;20200;-82
2021/07/23 05:21:14;;;;;;;13.45;9.93;;;18.10;67.80;;;18.43;51.54;95135.56;5016898;28;20216;-81
2021/07/23 05:23:42;;;;;;;13.45;9.63;;;18.10;67.60;;;18.46;51.47;95141.22;5000336;28;20196;-81
2021/07/23 05:26:10;;;;;;;12.48;9.32;;;18.30;67.70;;;18.56;51.61;95144.06;5020414;28;20272;-82
2021/07/23 05:28:37;;;;;;;12.60;10.15;;;18.20;67.60;;;18.61;51.46;95134.59;5025270;28;20196;-82
2021/07/23 05:31:09;;;;;;;13.73;9.77;;;18.30;67.30;;;18.65;50.94;95141.03;5031241;28;20219;-81
2021/07/23 05:33:36;;;;;;;12.60;9.75;;;18.40;67.40;;;18.75;51.15;95141.25;4999139;28;20271;-82
2021/07/23 05:36:04;;;;;;;13.60;10.45;;;18.40;67.20;;;18.80;51.32;95137.88;5020200;28;20798;-82
2021/07/23 05:38:31;;;;;;;13.50;10.27;;;18.60;67.30;;;18.88;51.27;95148.09;4982203;28;20189;-82
2021/07/23 05:41:09;;;;;;;20.33;10.48;;;18.60;67.30;;;18.95;51.28;95145.34;5000040;28;20216;-80
2021/07/23 05:43:36;;;;;;;13.65;10.13;;;18.70;67.70;;;19.02;51.08;95146.00;5035429;28;20187;-81
2021/07/23 05:46:05;;;;;;;12.45;9.27;;;18.70;67.50;;;19.09;51.21;95140.53;5018892;28;20277;-81
2021/07/23 05:48:37;;;;;;;10.98;9.48;;;18.80;67.60;;;19.17;51.07;95143.59;5017475;28;20205;-80
2021/07/23 05:51:12;;;;;;;12.88;10.05;;;18.80;67.60;;;19.18;51.58;95131.91;5031212;28;20541;-81
2021/07/23 05:53:39;;;;;;;12.50;9.85;;;18.90;67.60;;;19.31;51.50;95148.59;5008710;28;20598;-81
2021/07/23 05:56:08;;;;;;;12.68;10.05;;;19.00;67.40;;;19.37;50.86;95142.31;5026733;28;20280;-81
2021/07/23 05:58:35;;;;;;;12.45;10.00;;;19.10;67.40;;;19.46;51.21;95142.75;5006516;28;20273;-78
2021/07/23 06:01:07;;;;;;;12.38;9.52;;;19.10;67.10;;;19.54;50.73;95138.88;5047517;28;20719;-79
2021/07/23 06:03:36;;;;;;;13.52;9.50;;;19.30;67.40;;;19.60;50.87;95130.69;5026050;28;20195;-79
2021/07/23 06:06:04;;;;;;;11.68;8.88;;;19.30;67.20;;;19.72;50.94;95138.59;5014773;28;20973;-79
2021/07/23 06:08:51;;;;;;;13.50;10.02;;;19.40;67.30;;;19.81;50.43;95137.16;5029063;28;20206;-79
2021/07/23 06:11:18;;;;;;;11.80;9.27;;;19.40;67.20;;;19.91;50.47;95136.53;5024204;28;20309;-79
2021/07/23 06:13:45;;;;;;;11.02;8.43;;;19.50;67.10;;;19.99;50.37;95133.44;5023602;28;20210;-80
2021/07/23 06:16:13;;;;;;;11.93;8.90;;;19.60;67.10;;;20.06;50.19;95135.91;5022317;28;20322;-79
2021/07/23 06:18:40;;;;;;;13.18;9.13;;;19.60;67.10;;;20.18;50.39;95133.16;5005464;28;20194;-78
2021/07/23 06:21:08;;;;;;;11.88;9.00;;;19.70;67.10;;;20.25;50.57;95131.09;4993598;28;20223;-80
2021/07/23 06:23:36;;;;;;;12.15;8.70;;;19.80;67.00;;;20.36;49.99;95134.69;5007576;28;20214;-79
2021/07/23 06:26:04;;;;;;;11.63;8.70;;;19.90;66.90;;;20.45;49.63;95127.88;5025269;28;20243;-79
2021/07/23 06:28:31;;;;;;;9.75;8.15;;;20.00;66.80;;;20.56;50.06;95131.47;5023695;28;20236;-79
2021/07/23 06:31:04;;;;;;;11.07;8.63;;;20.10;66.90;;;20.66;49.73;95125.44;5027956;28;20221;-79
2021/07/23 06:33:31;;;;;;;13.40;8.77;;;20.20;66.90;;;20.77;49.99;95134.38;4999947;28;20199;-83
2021/07/23 06:36:01;;;;;;;10.82;8.77;;;20.30;66.90;;;20.87;49.90;95133.69;5013718;28;20243;-80
2021/07/23 06:38:28;;;;;;;9.80;8.43;;;20.40;66.80;;;20.96;49.72;95134.84;5015952;28;20708;-79
2021/07/23 06:40:55;;;;;;;13.48;8.07;;;20.40;66.70;;;21.04;49.37;95123.69;5008352;28;20211;-80
2021/07/23 06:43:23;;;;;;;12.43;8.85;;;20.50;66.60;;;21.15;49.86;95126.47;5008144;28;20282;-79
2021/07/23 06:45:52;;;;;;;12.35;8.63;;;20.60;66.70;;;21.27;49.50;95127.91;5014257;28;20227;-80
2021/07/23 06:48:19;;;;;;;9.65;8.32;;;20.70;66.80;;;21.37;49.59;95124.53;5028092;28;20242;-80
2021/07/23 06:50:51;;;;;;;11.45;8.25;;;20.90;66.80;;;21.43;49.28;95117.38;5005588;28;20304;-82
2021/07/23 06:53:19;;;;;;;12.13;8.40;;;20.90;66.40;;;21.57;49.09;95123.91;5006304;28;20567;-80
2021/07/23 06:55:47;;;;;;;10.13;8.23;;;21.00;66.30;;;21.68;49.29;95122.13;5030263;28;20293;-80
2021/07/23 06:58:14;;;;;;;9.45;8.20;;;21.20;66.50;;;21.78;49.37;95117.91;5013045;28;20557;-80
2021/07/23 07:00:46;;;;;;;10.18;8.27;;;21.20;66.50;;;21.90;48.39;95126.53;5028663;28;20810;-80
2021/07/23 07:03:13;;;;;;;10.25;8.18;;;21.30;66.10;;;22.00;48.95;95120.44;5026977;28;20206;-79
2021/07/23 07:05:41;;;;;;;9.77;8.10;;;21.40;66.10;;;22.10;48.58;95123.16;5016841;28;20334;-81
2021/07/23 07:08:08;;;;;;;8.82;7.93;;;21.50;65.80;;;22.20;48.28;95123.22;5016783;28;20245;-79
2021/07/23 07:10:35;;;;;;;9.25;8.02;;;21.60;66.70;;;22.32;48.29;95124.88;5034387;28;20232;-80
2021/07/23 07:13:03;;;;;;;9.60;8.05;;;21.70;65.70;;;22.41;47.96;95127.88;5017850;28;20710;-79
2021/07/23 07:15:30;;;;;;;9.23;7.85;;;21.70;65.50;;;22.52;48.04;95121.50;5050151;28;20228;-80
2021/07/23 07:18:01;;;;;;;9.27;7.85;;;21.90;65.10;;;22.63;47.85;95122.31;5034689;28;20221;-83
2021/07/23 07:20:31;;;;;;;10.18;7.68;;;22.00;65.10;;;22.70;47.30;95123.72;5031961;28;21935;-82
2021/07/23 07:23:01;;;;;;;8.68;7.78;;;22.10;65.10;;;22.81;47.51;95124.53;5016824;28;20665;-82
2021/07/23 07:25:31;;;;;;;11.10;7.30;;;22.20;65.20;;;22.93;47.36;95129.63;5032754;28;20312;-83
2021/07/23 07:28:00;;;;;;;8.63;7.05;;;22.20;65.20;;;23.03;47.09;95124.31;5017367;28;20179;-83
2021/07/23 07:30:27;;;;;;;9.60;7.38;;;22.40;65.40;;;23.16;47.25;95131.03;5016498;28;20534;-82
2021/07/23 07:32:54;;;;;;;7.68;6.75;;;22.50;65.20;;;23.24;46.89;95115.50;5016397;28;20197;-82
2021/07/23 07:35:21;;;;;;;9.80;7.80;;;22.60;65.60;;;23.39;46.80;95117.38;5033671;28;20256;-84
2021/07/23 07:37:48;;;;;;;12.48;8.00;;;22.70;65.00;;;23.48;46.53;95123.81;5029062;28;20254;-82
2021/07/23 07:40:16;;;;;;;11.25;6.95;;;22.80;64.50;;;23.55;46.08;95120.88;5014881;28;20218;-82
2021/07/23 07:42:43;;;;;;;12.70;7.90;;;22.90;64.20;;;23.64;46.09;95116.56;5028808;28;20208;-82
2021/07/23 07:45:11;;;;;;;10.77;7.35;;;23.00;64.30;;;23.71;46.06;95114.41;5034270;28;20216;-83
2021/07/23 07:47:38;;;;;;;10.07;7.50;;;23.10;64.30;;;23.84;45.94;95123.78;5034744;28;20225;-82
2021/07/23 07:50:07;;;;;;;8.25;7.40;;;23.10;64.20;;;23.95;45.40;95116.56;5021739;28;20241;-82
2021/07/23 07:52:34;;;;;;;7.10;6.32;;;23.20;63.80;;;24.05;45.52;95121.88;5020411;28;20211;-82
2021/07/23 07:55:01;;;;;;;7.97;6.65;;;23.30;63.80;;;24.13;44.82;95113.28;5022156;28;20229;-83
2021/07/23 07:57:29;;;;;;;10.05;7.05;;;23.40;63.40;;;24.21;44.96;95111.91;5038541;28;20674;-81
2021/07/23 07:59:57;;;;;;;9.38;6.60;;;23.50;63.50;;;24.33;45.42;95114.28;5038025;28;20748;-81
2021/07/23 08:02:24;;;;;;;7.60;6.72;;;23.60;63.50;;;24.43;45.02;95108.09;5016788;28;20217;-82
2021/07/23 08:04:53;;;;;;;8.10;6.85;;;23.70;63.30;;;24.53;44.60;95099.19;5034203;28;20208;-81
2021/07/23 08:07:28;;;;;;;8.48;6.70;;;23.80;63.00;;;24.62;44.39;95110.97;5034809;28;20642;-82
2021/07/23 08:10:02;;;;;;;11.90;7.30;;;23.80;62.70;;;24.71;43.91;95108.53;5006333;28;20590;-83
2021/07/23 08:12:30;;;;;;;8.68;6.72;;;23.90;62.50;;;24.79;43.92;95110.59;5033324;28;20237;-82
2021/07/23 08:15:00;;;;;;;8.18;6.93;;;24.00;62.30;;;24.86;43.38;95108.41;5037462;28;20226;-81
2021/07/23 08:17:28;;;;;;;7.63;6.43;;;24.10;62.10;;;24.93;43.46;95106.22;5028387;28;20223;-82
2021/07/23 08:19:59;;;;;;;6.72;6.10;;;24.20;62.30;;;25.02;43.68;95105.66;5029181;28;20208;-82
2021/07/23 08:22:29;;;;;;;6.82;6.10;;;24.30;62.30;;;25.07;43.32;95101.06;5031449;28;20192;-82
2021/07/23 08:24:56;;;;;;;8.77;7.00;;;24.40;62.40;;;25.19;43.32;95108.72;5035539;28;20217;-83
2021/07/23 08:27:24;;;;;;;8.93;6.45;;;24.40;61.90;;;25.26;43.07;95100.38;5027400;28;20200;-83
2021/07/23 08:29:51;;;;;;;6.97;6.25;;;24.50;62.00;;;25.35;42.91;95104.06;5018813;28;20211;-82
2021/07/23 08:32:19;;;;;;;7.97;6.60;;;24.60;61.70;;;25.43;42.54;95108.06;5036135;28;20254;-82
2021/07/23 08:34:47;;;;;;;7.70;6.78;;;24.70;61.40;;;25.50;42.25;95099.66;5021671;28;20235;-82
2021/07/23 08:37:14;;;;;;;8.73;6.07;;;24.70;61.30;;;25.57;42.38;95095.59;5028114;28;20289;-81
2021/07/23 08:39:42;;;;;;;9.07;6.30;;;24.80;61.30;;;25.67;42.55;95091.19;5011702;28;20265;-82
2021/07/23 08:42:26;;;;;;;8.32;6.72;;;24.90;61.40;;;25.76;42.02;95092.19;5035716;28;20195;-83
2021/07/23 08:44:55;;;;;;;7.32;6.43;;;25.00;61.30;;;25.87;42.05;95096.34;5009930;28;20251;-82
2021/07/23 08:47:22;;;;;;;8.98;6.72;;;25.00;61.00;;;25.98;42.13;95085.50;4983560;28;20635;-83
2021/07/23 08:49:51;;;;;;;8.60;6.40;;;25.10;61.30;;;26.08;41.73;95081.94;5027418;28;20226;-81
2021/07/23 08:52:57;;;;;;;8.10;6.63;;;25.20;60.90;;;26.20;41.15;95095.78;5035432;28;20227;-80
2021/07/23 08:55:25;;;;;;;8.77;6.63;;;25.30;60.50;;;26.26;41.07;95085.78;5035099;28;20265;-82
2021/07/23 08:57:52;;;;;;;6.97;6.15;;;25.50;60.50;;;26.37;41.04;95085.34;5029684;28;20220;-82
2021/07/23 09:00:22;;;;;;;6.65;5.95;;;25.50;60.30;;;26.47;41.26;95089.00;5008034;28;20252;-81
2021/07/23 09:02:58;;;;;;;8.43;7.30;;;25.60;60.00;;;26.53;40.49;95085.94;5013244;28;20194;-81
2021/07/23 09:05:38;;;;;;;7.80;6.68;;;25.70;59.30;;;26.61;40.48;95087.19;4999936;28;20212;-82
2021/07/23 09:08:17;;;;;;;8.38;7.07;;;25.70;59.60;;;26.69;40.11;95091.91;4985076;28;20258;-82
2021/07/23 09:10:46;;;;;;;8.63;7.22;;;25.90;59.70;;;26.78;39.86;95092.13;5014651;28;20252;-83
2021/07/23 09:13:23;;;;;;;8.05;7.10;;;25.90;59.00;;;26.89;40.11;95086.56;4996033;28;20288;-82
2021/07/23 09:15:51;;;;;;;9.23;7.03;;;26.00;58.90;;;26.99;39.28;95094.50;5017511;28;20307;-82
2021/07/23 09:18:29;;;;;;;8.50;6.50;;;26.10;58.60;;;27.12;39.21;95091.09;4987301;28;20738;-83
2021/07/23 09:21:01;;;;;;;19.13;7.28;;;26.20;57.80;;;27.26;38.95;95090.34;5014619;28;20218;-82
2021/07/23 09:23:33;;;;;;;8.75;6.53;;;26.30;58.50;;;27.41;38.84;95084.72;4998486;28;20194;-84
2021/07/23 09:26:17;;;;;;;7.07;6.28;;;26.40;58.00;;;27.58;39.18;95094.16;5014924;28;20206;-83
2021/07/23 09:28:46;;;;;;;8.07;6.22;;;26.50;58.40;;;27.64;39.02;95093.75;5015002;28;20229;-84
2021/07/23 09:31:40;;;;;;;6.50;5.80;;;26.70;58.20;;;27.67;38.88;95096.97;5044719;28;20252;-84
2021/07/23 09:34:30;;;;;;;8.20;6.55;;;26.80;58.80;;;27.66;38.73;95082.69;5009908;28;20544;-84
2021/07/23 09:37:10;;;;;;;7.10;6.10;;;26.80;57.40;;;27.74;38.88;95086.59;5004089;28;20813;-84
2021/07/23 09:39:57;;;;;;;7.80;7.07;;;26.90;57.60;;;27.86;38.47;95084.22;5015055;28;20221;-83
2021/07/23 09:42:26;;;;;;;7.57;6.63;;;27.00;57.10;;;27.97;38.24;95079.44;5000538;28;20220;-83
2021/07/23 09:45:03;;;;;;;7.65;6.70;;;27.10;57.60;;;28.19;38.19;95080.66;5006983;28;20215;-84
2021/07/23 09:47:30;;;;;;;38.05;7.82;;;27.20;57.40;;;28.36;37.96;95078.16;5034013;28;20264;-84
2021/07/23 09:50:01;;;;;;;7.65;6.88;;;27.30;57.40;;;28.51;37.80;95076.25;5000794;28;20612;-84
2021/07/23 09:52:29;;;;;;;7.75;6.95;;;27.40;56.60;;;28.56;37.41;95078.81;5000503;28;20191;-85
2021/07/23 09:54:56;;;;;;;9.65;6.97;;;27.50;56.40;;;28.58;37.35;95074.72;4983277;28;20596;-85
2021/07/23 09:57:27;;;;;;;7.75;6.95;;;27.60;56.10;;;28.60;37.00;95067.13;5014802;28;20259;-85
2021/07/23 09:59:58;;;;;;;7.25;6.55;;;27.70;55.60;;;28.68;36.61;95070.22;5014166;28;20305;-84
2021/07/23 10:02:27;;;;;;;9.45;6.70;;;27.70;55.40;;;28.72;37.18;95057.72;5002605;28;20677;-85
2021/07/23 10:05:07;;;;;;;7.95;7.03;;;27.80;55.50;;;28.82;36.31;95064.78;5018545;28;20696;-85
2021/07/23 10:07:40;;;;;;;8.32;7.45;;;27.90;54.00;;;28.80;35.27;95064.31;5017837;28;20210;-84
2021/07/23 10:10:13;;;;;;;8.00;7.10;;;28.00;54.10;;;28.84;35.33;95060.69;5050472;28;20229;-84
2021/07/23 10:12:43;;;;;;;9.23;7.18;;;28.00;53.50;;;28.92;35.41;95054.56;5022064;28;20221;-84
2021/07/23 10:15:13;;;;;;;7.63;6.55;;;28.00;53.70;;;28.98;35.40;95047.16;4999063;28;20216;-84
2021/07/23 10:17:41;;;;;;;8.15;7.00;;;28.10;54.30;;;29.05;34.46;95047.53;4999441;28;20213;-85
2021/07/23 10:20:09;;;;;;;8.35;7.45;;;28.20;53.10;;;29.04;34.87;95045.13;5015826;28;20229;-85
2021/07/23 10:22:37;;;;;;;8.80;7.00;;;28.20;52.60;;;29.02;34.71;95042.72;5016154;28;20205;-84
2021/07/23 10:25:05;;;;;;;7.38;6.57;;;28.30;52.70;;;29.04;35.04;95047.81;5016004;28;20232;-84
2021/07/23 10:27:33;;;;;;;8.13;6.65;;;28.30;52.90;;;29.00;34.95;95044.94;4999668;28;20659;-85